Time;durP1;ratioP1;P1;durP2;ratioP2;P2;SDS_P1;SDS_P2;PMS_P1;PMS_P2;Temp;Humidity;BMP_temperature;BMP_pressure;BME280_temperature;BME280_humidity;BME280_pressure;Samples;Min_cycle;Max_cycle;Signal;HPM_P1;HPM_P2
2023/11/11 00:00:04;;;;;;;4.65;2.42;;;7.40;99.70;;;;;;5006743;28;20109;-69
2023/11/11 00:02:30;;;;;;;5.70;2.67;;;7.50;99.70;;;;;;5006329;28;20036;-70
2023/11/11 00:04:57;;;;;;;6.25;2.70;;;7.50;99.70;;;;;;5008749;28;20117;-71
2023/11/11 00:07:23;;;;;;;5.35;2.85;;;7.50;99.70;;;;;;5008905;28;20026;-70
2023/11/11 00:09:50;;;;;;;5.13;2.90;;;7.50;99.70;;;;;;5007507;28;20112;-69
2023/11/11 00:12:16;;;;;;;4.38;2.40;;;7.50;99.70;;;;;;5008816;28;20125;-69
2023/11/11 00:14:42;;;;;;;4.10;2.50;;;7.50;99.70;;;;;;5005344;28;20025;-69
2023/11/11 00:17:08;;;;;;;4.10;2.17;;;7.50;99.70;;;;;;5004749;28;20029;-69
2023/11/11 00:19:34;;;;;;;5.68;2.10;;;7.50;99.60;;;;;;5010631;28;20101;-69
2023/11/11 00:22:00;;;;;;;4.25;2.55;;;7.50;99.70;;;;;;5009345;28;20049;-68
2023/11/11 00:24:25;;;;;;;6.53;2.88;;;7.50;99.70;;;;;;5005548;28;20495;-69
2023/11/11 00:26:51;;;;;;;5.10;2.33;;;7.50;99.70;;;;;;5006862;28;20429;-68
2023/11/11 00:29:16;;;;;;;4.97;2.67;;;7.40;99.70;;;;;;5003266;28;20025;-70
2023/11/11 00:31:49;;;;;;;4.20;2.40;;;7.50;99.70;;;;;;5008604;28;20121;-68
2023/11/11 00:34:18;;;;;;;5.30;2.67;;;7.50;99.70;;;;;;5002018;28;20459;-69
2023/11/11 00:36:45;;;;;;;3.47;2.35;;;7.40;99.70;;;;;;5010460;28;20029;-69
2023/11/11 00:39:11;;;;;;;5.03;2.67;;;7.40;99.70;;;;;;5007159;28;20104;-68
2023/11/11 00:41:38;;;;;;;5.82;2.97;;;7.40;99.70;;;;;;5009136;28;20585;-68
2023/11/11 00:44:08;;;;;;;4.07;2.08;;;7.40;99.70;;;;;;5006238;28;20419;-69
2023/11/11 00:46:37;;;;;;;4.28;2.20;;;7.30;99.70;;;;;;5004881;28;20075;-69
2023/11/11 00:49:03;;;;;;;5.28;2.58;;;7.40;99.80;;;;;;5009963;28;20269;-70
2023/11/11 00:51:29;;;;;;;6.18;3.08;;;7.30;99.80;;;;;;5006125;28;20080;-68
2023/11/11 00:53:56;;;;;;;5.13;2.58;;;7.30;99.80;;;;;;5005094;28;20025;-69
2023/11/11 00:56:21;;;;;;;5.15;2.10;;;7.30;99.80;;;;;;5005451;28;20045;-68
2023/11/11 00:58:48;;;;;;;4.80;2.55;;;7.30;99.80;;;;;;5004133;28;20072;-68
2023/11/11 01:01:13;;;;;;;5.88;2.67;;;7.30;99.80;;;;;;5003620;28;20575;-68
2023/11/11 01:03:39;;;;;;;4.45;2.58;;;7.30;99.90;;;;;;5013912;28;20026;-68
2023/11/11 01:06:05;;;;;;;5.78;2.83;;;7.30;99.90;;;;;;5006833;28;20026;-68
2023/11/11 01:08:31;;;;;;;5.75;2.47;;;7.30;99.90;;;;;;5010169;28;20030;-69
2023/11/11 01:10:57;;;;;;;5.25;2.60;;;7.30;99.90;;;;;;5005877;28;20091;-69
2023/11/11 01:13:22;;;;;;;6.90;2.85;;;7.30;99.90;;;;;;5001949;28;20041;-71
2023/11/11 01:15:51;;;;;;;4.25;2.33;;;7.30;99.90;;;;;;5002557;28;20029;-69
2023/11/11 01:18:17;;;;;;;5.28;2.50;;;7.30;99.90;;;;;;5007619;28;20065;-69
2023/11/11 01:20:43;;;;;;;5.18;2.80;;;7.30;99.90;;;;;;5010215;28;20528;-68
2023/11/11 01:23:08;;;;;;;5.47;2.72;;;7.30;99.90;;;;;;5007189;28;20026;-69
2023/11/11 01:25:34;;;;;;;5.65;2.80;;;7.30;99.90;;;;;;5003963;28;20478;-69
2023/11/11 01:27:59;;;;;;;4.85;2.70;;;7.30;99.90;;;;;;5001257;28;20492;-70
2023/11/11 01:30:25;;;;;;;5.10;2.17;;;7.30;99.90;;;;;;5005349;28;20616;-69
2023/11/11 01:32:51;;;;;;;5.60;2.60;;;7.30;99.90;;;;;;5006977;28;20398;-69
2023/11/11 01:35:17;;;;;;;5.15;2.58;;;7.30;99.90;;;;;;5009246;28;20033;-69
2023/11/11 01:37:42;;;;;;;3.97;2.20;;;7.30;99.90;;;;;;5009746;28;20022;-68
2023/11/11 01:40:08;;;;;;;4.75;2.60;;;7.30;99.90;;;;;;5006836;28;20042;-69
2023/11/11 01:42:34;;;;;;;5.53;2.47;;;7.30;99.90;;;;;;5004819;28;20022;-69
2023/11/11 01:45:00;;;;;;;5.20;2.67;;;7.30;99.90;;;;;;5009736;28;20042;-69
2023/11/11 01:47:25;;;;;;;4.75;2.45;;;7.40;99.90;;;;;;5002937;28;20133;-68
2023/11/11 01:49:51;;;;;;;3.90;2.20;;;7.40;99.90;;;;;;5010106;28;20072;-69
2023/11/11 01:52:17;;;;;;;6.55;2.97;;;7.40;99.90;;;;;;5007310;28;20061;-68
2023/11/11 01:54:43;;;;;;;4.03;2.13;;;7.40;99.90;;;;;;5006421;28;20022;-69
2023/11/11 01:57:09;;;;;;;5.38;2.05;;;7.40;99.90;;;;;;5004885;28;20034;-69
2023/11/11 01:59:37;;;;;;;4.72;2.20;;;7.40;99.90;;;;;;5004453;28;20022;-69
2023/11/11 02:02:04;;;;;;;3.72;2.00;;;7.40;99.90;;;;;;5002510;28;20505;-69
2023/11/11 02:04:29;;;;;;;4.60;2.38;;;7.40;99.90;;;;;;5003694;28;20117;-70
2023/11/11 02:06:55;;;;;;;4.03;2.13;;;7.30;99.90;;;;;;5003200;28;20148;-68
2023/11/11 02:09:24;;;;;;;4.55;2.33;;;7.40;99.90;;;;;;5005171;28;20191;-68
2023/11/11 02:11:55;;;;;;;5.30;2.75;;;7.40;99.90;;;;;;5006476;28;20079;-68
2023/11/11 02:14:21;;;;;;;5.00;2.50;;;7.40;99.90;;;;;;5007023;28;20038;-69
2023/11/11 02:16:47;;;;;;;5.72;2.83;;;7.40;99.90;;;;;;4997370;28;20076;-69
2023/11/11 02:19:12;;;;;;;5.13;2.50;;;7.40;99.90;;;;;;5007042;28;20124;-69
2023/11/11 02:21:38;;;;;;;4.93;2.42;;;7.40;99.90;;;;;;5009285;28;20465;-70
2023/11/11 02:24:04;;;;;;;3.90;1.90;;;7.30;99.90;;;;;;5008165;28;20031;-69
2023/11/11 02:26:29;;;;;;;6.43;2.40;;;7.30;99.90;;;;;;5004775;28;20037;-69
2023/11/11 02:28:55;;;;;;;6.90;2.40;;;7.30;99.90;;;;;;5004724;28;20034;-69
2023/11/11 02:31:24;;;;;;;3.78;2.40;;;7.30;99.90;;;;;;5006035;28;20024;-68
2023/11/11 02:33:49;;;;;;;4.95;2.60;;;7.30;99.90;;;;;;5006903;28;20038;-69
2023/11/11 02:36:15;;;;;;;3.58;1.80;;;7.30;99.90;;;;;;5010041;28;20113;-70
2023/11/11 02:38:40;;;;;;;4.20;2.25;;;7.30;99.90;;;;;;5009495;28;20471;-69
2023/11/11 02:41:06;;;;;;;4.80;2.20;;;7.30;99.90;;;;;;5007040;28;21153;-73
2023/11/11 02:43:32;;;;;;;3.45;1.63;;;7.30;99.90;;;;;;5001058;28;20030;-69
2023/11/11 02:45:58;;;;;;;4.13;1.70;;;7.30;99.90;;;;;;5003188;28;20025;-69
2023/11/11 02:48:23;;;;;;;4.00;2.22;;;7.20;99.90;;;;;;5005817;28;20034;-68
2023/11/11 02:50:49;;;;;;;3.83;1.80;;;7.20;99.90;;;;;;5008128;28;20089;-69
2023/11/11 02:53:14;;;;;;;3.90;2.03;;;7.20;99.90;;;;;;5003559;28;20099;-69
2023/11/11 02:55:40;;;;;;;4.03;1.95;;;7.20;99.90;;;;;;5005431;28;20030;-69
2023/11/11 02:58:06;;;;;;;3.30;1.77;;;7.20;99.90;;;;;;5000065;28;20088;-71
2023/11/11 03:00:32;;;;;;;3.58;2.00;;;7.20;99.90;;;;;;5005423;28;20466;-70
2023/11/11 03:02:57;;;;;;;4.50;1.88;;;7.20;99.90;;;;;;4999543;28;20041;-69
2023/11/11 03:05:23;;;;;;;3.45;1.77;;;7.20;99.90;;;;;;5009075;28;20367;-70
2023/11/11 03:07:49;;;;;;;3.92;1.80;;;7.20;99.90;;;;;;5008864;28;20394;-70
2023/11/11 03:10:15;;;;;;;4.50;1.83;;;7.20;99.90;;;;;;5005740;28;20076;-69
2023/11/11 03:12:41;;;;;;;3.95;1.80;;;7.20;99.90;;;;;;5001953;28;20037;-69
2023/11/11 03:15:08;;;;;;;3.20;1.77;;;7.20;99.90;;;;;;5004066;28;20390;-70
2023/11/11 03:17:33;;;;;;;3.97;2.33;;;7.20;99.90;;;;;;4999807;28;20596;-69
2023/11/11 03:19:59;;;;;;;3.03;1.73;;;7.10;99.90;;;;;;5000215;28;20030;-69
2023/11/11 03:22:24;;;;;;;4.25;1.75;;;7.10;99.90;;;;;;5006702;28;20474;-68
2023/11/11 03:24:50;;;;;;;2.75;1.65;;;7.10;99.90;;;;;;5004408;28;20359;-68
2023/11/11 03:27:16;;;;;;;2.45;1.60;;;7.10;99.90;;;;;;5009479;28;20056;-69
2023/11/11 03:29:41;;;;;;;3.63;1.73;;;7.20;99.90;;;;;;5005096;28;20117;-68
2023/11/11 03:32:07;;;;;;;6.32;1.85;;;7.10;99.90;;;;;;5004220;28;20038;-69
2023/11/11 03:34:32;;;;;;;4.13;1.83;;;7.20;99.90;;;;;;5008895;28;20099;-70
2023/11/11 03:36:58;;;;;;;3.53;1.73;;;7.10;99.90;;;;;;5009787;28;20034;-69
2023/11/11 03:39:25;;;;;;;3.80;1.67;;;7.10;99.90;;;;;;5008707;28;20030;-69
2023/11/11 03:41:50;;;;;;;2.80;1.48;;;7.10;99.90;;;;;;5006157;28;20033;-69
2023/11/11 03:44:16;;;;;;;3.72;1.75;;;7.10;99.90;;;;;;5007332;28;20034;-68
2023/11/11 03:46:41;;;;;;;3.22;1.70;;;7.20;99.90;;;;;;5007039;28;20080;-69
2023/11/11 03:49:07;;;;;;;3.13;1.63;;;7.20;99.80;;;;;;5007500;28;20074;-68
2023/11/11 03:51:32;;;;;;;3.00;1.73;;;7.20;99.90;;;;;;5006809;28;20026;-70
2023/11/11 03:53:58;;;;;;;3.55;1.60;;;7.10;99.90;;;;;;5007478;28;20032;-69
2023/11/11 03:56:24;;;;;;;3.65;1.52;;;7.20;99.80;;;;;;5009301;28;20405;-69
2023/11/11 03:58:50;;;;;;;3.00;1.52;;;7.10;99.80;;;;;;5007967;28;20026;-69
2023/11/11 04:01:15;;;;;;;3.28;1.60;;;7.20;99.80;;;;;;5006250;28;20076;-70
2023/11/11 04:03:43;;;;;;;2.50;1.23;;;7.10;99.80;;;;;;5005929;28;20462;-69
2023/11/11 04:06:12;;;;;;;2.70;1.48;;;7.10;99.80;;;;;;5008345;28;20018;-68
2023/11/11 04:08:39;;;;;;;3.40;1.65;;;7.10;99.70;;;;;;5007855;28;20478;-68
2023/11/11 04:11:07;;;;;;;3.75;1.70;;;7.10;99.70;;;;;;5005186;28;20034;-69
2023/11/11 04:13:42;;;;;;;2.90;1.50;;;7.10;99.70;;;;;;5006110;28;20038;-69
2023/11/11 04:16:09;;;;;;;1.20;0.98;;;7.10;99.80;;;;;;5005308;28;20036;-71
2023/11/11 04:18:35;;;;;;;3.67;1.55;;;7.10;99.70;;;;;;5010406;28;20113;-68
2023/11/11 04:21:01;;;;;;;2.90;1.55;;;7.10;99.70;;;;;;5005483;28;20386;-68
2023/11/11 04:23:28;;;;;;;2.90;1.55;;;7.10;99.80;;;;;;5012573;28;20038;-69
2023/11/11 04:25:57;;;;;;;2.47;1.30;;;7.10;99.80;;;;;;5005091;28;20081;-69
2023/11/11 04:28:23;;;;;;;3.70;1.65;;;7.10;99.80;;;;;;5008722;28;20095;-69
2023/11/11 04:30:49;;;;;;;2.60;1.17;;;7.10;99.90;;;;;;5007923;28;20037;-69
2023/11/11 04:33:16;;;;;;;4.00;1.30;;;7.10;99.90;;;;;;5005605;28;20032;-71
2023/11/11 04:35:42;;;;;;;1.55;0.90;;;7.10;99.90;;;;;;5008337;28;20050;-70
2023/11/11 04:38:08;;;;;;;2.83;1.63;;;7.10;99.90;;;;;;5008137;28;20104;-68
2023/11/11 04:40:35;;;;;;;3.15;1.40;;;7.10;99.90;;;;;;5008635;28;20080;-68
2023/11/11 04:43:00;;;;;;;3.90;1.45;;;7.10;99.90;;;;;;5003696;28;20022;-70
2023/11/11 04:45:26;;;;;;;1.67;1.20;;;7.10;99.90;;;;;;5005934;28;20034;-72
2023/11/11 04:47:51;;;;;;;2.45;1.40;;;7.10;99.90;;;;;;4999987;28;20026;-69
2023/11/11 04:50:17;;;;;;;2.78;1.33;;;7.10;99.90;;;;;;5006083;28;20026;-69
2023/11/11 04:52:45;;;;;;;1.80;1.08;;;7.00;99.90;;;;;;5007814;28;20021;-68
2023/11/11 04:55:11;;;;;;;2.20;1.42;;;7.00;99.90;;;;;;5004962;28;20038;-68
2023/11/11 04:57:36;;;;;;;3.03;1.70;;;7.10;99.90;;;;;;5010912;28;20037;-71
2023/11/11 05:00:03;;;;;;;3.67;1.67;;;7.00;99.90;;;;;;5004196;28;20018;-70
2023/11/11 05:02:29;;;;;;;2.30;1.10;;;7.10;99.90;;;;;;5005556;28;20124;-68
2023/11/11 05:04:54;;;;;;;1.70;1.08;;;7.10;99.90;;;;;;5006007;28;20136;-68
2023/11/11 05:07:22;;;;;;;1.88;0.82;;;7.10;99.90;;;;;;5006873;28;20030;-69
2023/11/11 05:09:48;;;;;;;2.33;1.27;;;7.10;99.90;;;;;;5006040;28;20346;-69
2023/11/11 05:12:14;;;;;;;2.15;1.13;;;7.10;99.90;;;;;;5005477;28;20443;-69
2023/11/11 05:14:41;;;;;;;1.35;1.05;;;7.10;99.90;;;;;;5006929;28;20021;-69
2023/11/11 05:17:08;;;;;;;2.75;1.33;;;7.00;99.90;;;;;;5004666;28;20040;-68
2023/11/11 05:19:34;;;;;;;2.30;1.10;;;7.00;99.90;;;;;;5010551;28;20057;-68
2023/11/11 05:22:00;;;;;;;2.10;0.85;;;7.00;99.90;;;;;;5005552;28;20120;-68
2023/11/11 05:24:25;;;;;;;1.75;1.00;;;7.10;99.90;;;;;;5006072;28;20168;-70
2023/11/11 05:26:51;;;;;;;1.80;1.20;;;7.00;99.90;;;;;;5005050;28;20046;-65
2023/11/11 05:29:16;;;;;;;2.35;1.45;;;7.00;99.90;;;;;;5004087;28;20533;-66
2023/11/11 05:31:42;;;;;;;2.20;1.27;;;7.00;99.90;;;;;;5003588;28;20021;-66
2023/11/11 05:34:07;;;;;;;3.80;1.45;;;7.00;99.90;;;;;;5007154;28;20506;-65
2023/11/11 05:36:33;;;;;;;3.63;1.45;;;7.00;99.90;;;;;;5006934;28;20030;-65
2023/11/11 05:38:59;;;;;;;2.38;1.55;;;7.00;99.90;;;;;;5003362;28;20145;-65
2023/11/11 05:41:24;;;;;;;3.03;1.60;;;7.00;99.90;;;;;;5006516;28;20109;-66
2023/11/11 05:43:51;;;;;;;3.42;1.50;;;7.00;99.90;;;;;;5003639;28;20382;-66
2023/11/11 05:46:17;;;;;;;2.33;1.27;;;7.00;99.90;;;;;;5009297;28;20037;-66
2023/11/11 05:48:46;;;;;;;2.75;1.42;;;7.00;99.90;;;;;;5010287;28;20038;-64
2023/11/11 05:51:15;;;;;;;2.90;1.33;;;7.00;99.90;;;;;;5003641;28;20162;-65
2023/11/11 05:53:40;;;;;;;2.95;1.38;;;7.00;99.90;;;;;;5013883;28;20029;-65
2023/11/11 05:56:08;;;;;;;2.72;1.35;;;7.00;99.90;;;;;;5004293;28;20043;-66
2023/11/11 05:58:34;;;;;;;3.17;1.60;;;7.00;99.90;;;;;;5003102;28;20352;-65
2023/11/11 06:00:59;;;;;;;2.97;1.50;;;7.00;99.90;;;;;;5003865;28;20077;-65
2023/11/11 06:03:25;;;;;;;2.55;1.40;;;7.00;99.90;;;;;;5005119;28;20398;-66
2023/11/11 06:05:51;;;;;;;2.60;1.40;;;7.00;99.90;;;;;;5002143;28;20035;-65
2023/11/11 06:08:16;;;;;;;2.15;1.35;;;7.00;99.90;;;;;;4999403;28;20489;-69
2023/11/11 06:10:43;;;;;;;2.55;1.23;;;7.00;99.90;;;;;;5009550;28;20057;-65
2023/11/11 06:13:09;;;;;;;3.35;1.70;;;7.00;99.90;;;;;;5002981;28;20520;-66
2023/11/11 06:15:35;;;;;;;2.83;1.52;;;7.00;99.90;;;;;;5007050;28;20490;-66
2023/11/11 06:18:02;;;;;;;2.85;1.50;;;7.00;99.90;;;;;;5003571;28;20032;-65
2023/11/11 06:20:28;;;;;;;5.20;1.75;;;7.00;99.90;;;;;;5004230;28;20053;-66
2023/11/11 06:22:54;;;;;;;4.70;1.77;;;7.00;99.90;;;;;;5009489;28;20101;-66
2023/11/11 06:25:20;;;;;;;3.08;1.60;;;7.10;99.90;;;;;;5008225;28;20017;-65
2023/11/11 06:27:47;;;;;;;2.80;1.75;;;7.00;99.90;;;;;;4998362;28;20050;-65
2023/11/11 06:30:16;;;;;;;4.05;1.63;;;7.00;99.90;;;;;;5008271;28;20640;-65
2023/11/11 06:32:42;;;;;;;4.28;2.22;;;7.10;99.90;;;;;;5006865;28;20029;-65
2023/11/11 06:35:08;;;;;;;4.55;1.80;;;7.00;99.90;;;;;;5004511;28;20026;-66
2023/11/11 06:37:35;;;;;;;2.20;1.45;;;7.10;99.90;;;;;;5004921;28;20034;-69
2023/11/11 06:40:02;;;;;;;4.13;1.52;;;7.10;99.90;;;;;;5005777;28;20044;-65
2023/11/11 06:42:27;;;;;;;3.08;1.58;;;7.00;99.90;;;;;;4998758;28;20038;-66
2023/11/11 06:44:53;;;;;;;3.97;2.00;;;7.10;99.90;;;;;;5007378;28;20088;-65
2023/11/11 06:47:18;;;;;;;3.92;2.05;;;7.10;99.90;;;;;;5005994;28;20088;-67
2023/11/11 06:49:44;;;;;;;3.45;1.70;;;7.10;99.90;;;;;;5008050;28;20056;-65
2023/11/11 06:52:10;;;;;;;3.80;1.98;;;7.10;99.90;;;;;;5003906;28;20026;-68
2023/11/11 06:54:36;;;;;;;5.72;2.47;;;7.10;99.90;;;;;;5012863;28;20092;-65
2023/11/11 06:57:03;;;;;;;4.30;2.13;;;7.10;99.90;;;;;;5005391;28;20459;-65
2023/11/11 06:59:29;;;;;;;5.10;2.25;;;7.10;99.90;;;;;;5003187;28;20021;-65
2023/11/11 07:01:54;;;;;;;4.97;2.53;;;7.10;99.90;;;;;;5009604;28;20036;-68
2023/11/11 07:04:20;;;;;;;4.55;2.53;;;7.10;99.90;;;;;;5014253;28;20026;-66
2023/11/11 07:06:45;;;;;;;7.88;2.67;;;7.10;99.90;;;;;;5005206;28;20048;-67
2023/11/11 07:09:12;;;;;;;5.40;2.83;;;7.10;99.90;;;;;;5009492;28;20041;-66
2023/11/11 07:11:37;;;;;;;4.97;2.65;;;7.10;99.90;;;;;;5010501;28;20029;-67
2023/11/11 07:14:03;;;;;;;5.13;2.35;;;7.10;99.90;;;;;;5000493;28;20438;-66
2023/11/11 07:16:29;;;;;;;6.75;3.17;;;7.20;99.90;;;;;;5010075;28;20040;-65
2023/11/11 07:18:54;;;;;;;6.07;2.88;;;7.20;99.90;;;;;;5013730;28;20474;-65
2023/11/11 07:21:22;;;;;;;6.60;3.08;;;7.10;99.90;;;;;;5009488;28;20069;-65
2023/11/11 07:23:48;;;;;;;7.47;3.20;;;7.20;99.90;;;;;;5010045;28;20025;-65
2023/11/11 07:26:15;;;;;;;6.47;3.15;;;7.20;99.90;;;;;;5004116;28;20397;-65
2023/11/11 07:28:42;;;;;;;8.23;4.22;;;7.20;99.90;;;;;;5006730;28;20077;-66
2023/11/11 07:31:09;;;;;;;7.55;3.58;;;7.20;99.90;;;;;;5003851;28;20447;-67
2023/11/11 07:33:34;;;;;;;7.38;3.53;;;7.20;99.90;;;;;;5010779;28;20026;-65
2023/11/11 07:36:00;;;;;;;9.00;3.85;;;7.20;99.90;;;;;;5010634;28;20072;-65
2023/11/11 07:38:26;;;;;;;7.03;3.95;;;7.20;99.90;;;;;;5004834;28;20042;-67
2023/11/11 07:40:51;;;;;;;7.22;3.65;;;7.30;99.90;;;;;;5010189;28;20446;-66
2023/11/11 07:43:17;;;;;;;7.60;3.90;;;7.20;99.90;;;;;;5002300;28;20022;-66
2023/11/11 07:45:42;;;;;;;9.48;4.32;;;7.30;99.90;;;;;;5002906;28;20032;-66
2023/11/11 07:48:08;;;;;;;7.20;3.25;;;7.30;99.90;;;;;;5007663;28;20038;-66
2023/11/11 07:50:33;;;;;;;9.18;4.50;;;7.30;99.90;;;;;;5013018;28;20057;-68
2023/11/11 07:52:59;;;;;;;7.32;4.18;;;7.30;99.90;;;;;;5001572;28;20034;-67
2023/11/11 07:55:25;;;;;;;7.40;3.92;;;7.30;99.90;;;;;;5010307;28;20062;-68
2023/11/11 07:57:50;;;;;;;9.93;4.03;;;7.40;99.90;;;;;;4996503;28;20038;-67
2023/11/11 08:00:18;;;;;;;7.05;3.92;;;7.40;99.90;;;;;;5004234;28;20026;-68
2023/11/11 08:02:44;;;;;;;8.82;4.70;;;7.40;99.90;;;;;;5008049;28;20455;-67
2023/11/11 08:05:10;;;;;;;7.13;3.70;;;7.40;99.90;;;;;;5011402;28;20040;-68
2023/11/11 08:07:36;;;;;;;8.82;3.97;;;7.40;99.90;;;;;;5007708;28;20034;-68
2023/11/11 08:10:03;;;;;;;10.63;5.05;;;7.40;99.90;;;;;;5005855;28;20028;-67
2023/11/11 08:12:29;;;;;;;8.90;3.88;;;7.40;99.90;;;;;;5009019;28;20044;-67
2023/11/11 08:14:57;;;;;;;10.07;4.53;;;7.40;99.90;;;;;;5008080;28;20144;-67
2023/11/11 08:17:23;;;;;;;9.75;5.10;;;7.40;99.90;;;;;;5003705;28;20076;-68
2023/11/11 08:19:48;;;;;;;10.60;4.53;;;7.40;99.90;;;;;;5011202;28;20114;-68
2023/11/11 08:22:13;;;;;;;10.30;4.90;;;7.40;99.90;;;;;;5008867;28;20417;-67
2023/11/11 08:24:39;;;;;;;9.57;4.47;;;7.50;99.90;;;;;;5011605;28;20025;-67
2023/11/11 08:27:05;;;;;;;9.15;4.82;;;7.50;99.90;;;;;;5006930;28;20073;-67
2023/11/11 08:29:30;;;;;;;9.10;5.13;;;7.50;99.90;;;;;;5004943;28;20025;-67
2023/11/11 08:31:57;;;;;;;8.77;4.40;;;7.50;99.90;;;;;;5005415;28;20049;-68
2023/11/11 08:34:29;;;;;;;10.25;5.25;;;7.50;99.90;;;;;;5003651;28;20018;-66
2023/11/11 08:36:56;;;;;;;10.80;5.18;;;7.50;99.90;;;;;;5010165;28;20076;-67
2023/11/11 08:39:22;;;;;;;9.10;4.35;;;7.50;99.90;;;;;;5007055;28;20040;-66
2023/11/11 08:41:47;;;;;;;8.45;4.22;;;7.50;99.90;;;;;;5006183;28;20156;-67
2023/11/11 08:44:13;;;;;;;9.98;4.90;;;7.60;99.90;;;;;;5007176;28;20018;-67
2023/11/11 08:46:39;;;;;;;9.65;4.63;;;7.60;99.90;;;;;;5008647;28;20041;-66
2023/11/11 08:49:05;;;;;;;11.27;4.97;;;7.60;99.90;;;;;;5005715;28;20379;-68
2023/11/11 08:51:31;;;;;;;9.88;4.80;;;7.60;99.90;;;;;;5006473;28;20042;-67
2023/11/11 08:53:58;;;;;;;8.45;4.50;;;7.60;99.90;;;;;;5007391;28;20072;-68
2023/11/11 08:56:23;;;;;;;9.73;4.85;;;7.60;99.90;;;;;;4983313;28;20042;-67
2023/11/11 08:58:49;;;;;;;8.52;4.07;;;7.60;99.90;;;;;;5008817;28;20417;-70
2023/11/11 09:01:14;;;;;;;12.90;4.80;;;7.60;99.90;;;;;;5002361;28;20042;-67
2023/11/11 09:03:40;;;;;;;8.75;4.05;;;7.60;99.90;;;;;;4996947;28;20029;-68
2023/11/11 09:06:06;;;;;;;9.18;4.38;;;7.60;99.90;;;;;;5004055;28;20040;-70
2023/11/11 09:08:31;;;;;;;9.65;4.72;;;7.60;99.90;;;;;;4999594;28;20018;-68
2023/11/11 09:10:59;;;;;;;8.75;4.47;;;7.60;99.90;;;;;;5009918;28;20398;-67
2023/11/11 09:13:24;;;;;;;7.35;4.07;;;7.60;99.90;;;;;;5000351;28;20033;-67
2023/11/11 09:15:50;;;;;;;9.35;4.50;;;7.60;99.90;;;;;;5005134;28;20045;-67
2023/11/11 09:18:17;;;;;;;9.40;5.03;;;7.60;99.80;;;;;;5009149;28;20117;-68
2023/11/11 09:20:42;;;;;;;8.52;4.20;;;7.50;99.40;;;;;;5007747;28;20033;-67
2023/11/11 09:23:08;;;;;;;8.40;4.03;;;7.50;99.30;;;;;;5000522;28;20030;-67
2023/11/11 09:25:33;;;;;;;7.15;4.13;;;7.60;99.40;;;;;;5010613;28;20025;-67
2023/11/11 09:27:59;;;;;;;8.77;4.55;;;7.60;99.30;;;;;;5003646;28;20050;-67
2023/11/11 09:30:24;;;;;;;6.63;3.75;;;7.60;99.20;;;;;;5001873;28;20092;-70
2023/11/11 09:32:51;;;;;;;7.00;3.90;;;7.70;99.30;;;;;;5003559;28;20062;-67
2023/11/11 09:35:17;;;;;;;6.15;3.35;;;7.60;99.20;;;;;;5007373;28;20524;-67
2023/11/11 09:37:43;;;;;;;5.00;3.03;;;7.60;99.20;;;;;;5008593;28;20038;-68
2023/11/11 09:40:11;;;;;;;5.63;2.88;;;7.50;99.00;;;;;;5000056;28;20486;-67
2023/11/11 09:42:37;;;;;;;3.38;2.22;;;7.50;98.90;;;;;;5003905;28;20038;-68
2023/11/11 09:45:04;;;;;;;2.97;1.83;;;7.60;98.90;;;;;;5005323;28;20458;-70
2023/11/11 09:47:32;;;;;;;4.45;2.42;;;7.50;98.60;;;;;;5004056;28;20536;-68
2023/11/11 09:50:00;;;;;;;4.78;2.35;;;7.50;98.60;;;;;;5009552;28;20030;-67
2023/11/11 09:52:30;;;;;;;2.47;1.38;;;7.60;98.70;;;;;;4995764;28;20670;-69
2023/11/11 09:54:58;;;;;;;3.78;1.92;;;7.60;98.60;;;;;;5006114;28;20034;-69
2023/11/11 09:57:24;;;;;;;4.70;2.42;;;7.60;98.80;;;;;;4980350;28;20402;-68
2023/11/11 09:59:51;;;;;;;3.38;1.63;;;7.60;98.80;;;;;;5003278;28;20038;-67
2023/11/11 10:02:17;;;;;;;5.15;2.08;;;7.60;98.80;;;;;;5000824;28;20046;-68
2023/11/11 10:04:42;;;;;;;3.95;1.85;;;7.60;98.60;;;;;;5007283;28;20088;-68
2023/11/11 10:07:10;;;;;;;3.47;1.95;;;7.70;98.60;;;;;;5005826;28;20027;-68
2023/11/11 10:09:36;;;;;;;2.28;1.38;;;7.70;98.50;;;;;;4999871;28;20030;-67
2023/11/11 10:12:02;;;;;;;2.30;1.60;;;7.60;98.00;;;;;;5004922;28;20033;-68
2023/11/11 10:14:32;;;;;;;4.22;2.35;;;7.70;98.20;;;;;;5001546;28;20034;-67
2023/11/11 10:17:00;;;;;;;3.40;1.90;;;7.70;98.20;;;;;;4999615;28;20030;-67
2023/11/11 10:19:26;;;;;;;3.33;1.70;;;7.70;98.10;;;;;;5002283;28;20141;-68
2023/11/11 10:21:58;;;;;;;3.20;1.92;;;7.70;98.00;;;;;;5002135;28;20174;-66
2023/11/11 10:24:25;;;;;;;2.13;1.30;;;7.60;98.00;;;;;;5021302;28;20081;-69
2023/11/11 10:26:52;;;;;;;2.25;1.50;;;7.60;98.00;;;;;;5003601;28;20049;-67
2023/11/11 10:29:17;;;;;;;2.90;1.63;;;7.70;98.10;;;;;;5004932;28;20030;-66
2023/11/11 10:31:47;;;;;;;3.65;1.75;;;7.70;98.00;;;;;;5000141;28;20438;-66
2023/11/11 10:34:12;;;;;;;3.97;1.95;;;7.70;97.50;;;;;;5005817;28;20041;-67
2023/11/11 10:36:42;;;;;;;2.63;1.70;;;7.70;97.80;;;;;;5010761;28;20374;-66
2023/11/11 10:39:10;;;;;;;2.38;1.15;;;7.80;97.80;;;;;;5009191;28;20026;-66
2023/11/11 10:41:36;;;;;;;2.42;1.48;;;7.80;97.30;;;;;;5008190;28;20042;-68
2023/11/11 10:44:05;;;;;;;2.47;1.27;;;7.80;96.90;;;;;;5009826;28;20040;-67
2023/11/11 10:46:31;;;;;;;2.42;1.50;;;7.80;96.60;;;;;;5008141;28;20034;-68
2023/11/11 10:48:57;;;;;;;1.73;1.00;;;7.80;96.70;;;;;;5011579;28;20484;-67
2023/11/11 10:51:25;;;;;;;1.02;0.88;;;7.80;96.60;;;;;;5007250;28;20089;-67
2023/11/11 10:53:50;;;;;;;2.17;1.08;;;7.80;96.50;;;;;;4998986;28;20081;-67
2023/11/11 10:56:18;;;;;;;2.70;1.45;;;7.80;96.00;;;;;;4980107;28;20058;-68
2023/11/11 10:58:46;;;;;;;1.67;0.95;;;7.90;96.40;;;;;;5006754;28;20104;-67
2023/11/11 11:01:13;;;;;;;1.75;0.90;;;7.80;96.20;;;;;;5004583;28;20054;-68
2023/11/11 11:03:39;;;;;;;1.27;0.88;;;7.70;96.20;;;;;;5009857;28;20073;-67
2023/11/11 11:06:09;;;;;;;1.63;0.70;;;7.70;96.30;;;;;;4999333;28;20487;-66
2023/11/11 11:08:43;;;;;;;;;;;7.70;96.10;;;;;;5008294;28;20443;-67
2023/11/11 11:11:25;;;;;;;1.35;0.82;;;7.80;96.00;;;;;;5006152;28;19916;-69
2023/11/11 11:13:53;;;;;;;1.08;0.70;;;8.00;96.20;;;;;;4998840;28;20042;-67
2023/11/11 11:16:28;;;;;;;2.08;1.00;;;8.10;96.40;;;;;;5005241;28;20041;-68
2023/11/11 11:18:57;;;;;;;0.63;0.50;;;8.00;96.20;;;;;;5001865;28;20040;-68
2023/11/11 11:21:25;;;;;;;0.75;0.60;;;8.00;96.80;;;;;;5001117;28;20048;-68
2023/11/11 11:23:51;;;;;;;1.20;0.77;;;8.10;97.10;;;;;;5006367;28;20040;-68
2023/11/11 11:26:37;;;;;;;0.68;0.60;;;8.10;97.10;;;;;;5009832;28;20124;-68
2023/11/11 11:29:13;;;;;;;1.38;0.55;;;8.00;96.80;;;;;;5003935;28;20034;-67
2023/11/11 11:32:10;;;;;;;1.25;0.80;;;8.00;96.40;;;;;;5008948;28;20030;-66
2023/11/11 11:34:42;;;;;;;0.75;0.70;;;7.90;96.30;;;;;;5004671;28;20471;-69
2023/11/11 11:37:12;;;;;;;1.23;0.70;;;8.10;96.70;;;;;;5007591;28;20165;-67
2023/11/11 11:40:17;;;;;;;1.25;0.80;;;8.10;96.30;;;;;;5011356;28;20049;-67
2023/11/11 11:42:48;;;;;;;1.70;1.02;;;8.10;96.40;;;;;;4987962;28;20431;-67
2023/11/11 11:45:14;;;;;;;1.40;0.90;;;8.10;96.30;;;;;;5006820;28;20069;-69
2023/11/11 11:47:40;;;;;;;1.80;1.15;;;8.00;96.60;;;;;;5004755;28;20076;-67
2023/11/11 11:50:06;;;;;;;3.08;1.13;;;8.00;96.90;;;;;;5012695;28;20495;-68
2023/11/11 11:52:34;;;;;;;1.45;0.90;;;8.00;97.00;;;;;;5007623;28;20375;-68
2023/11/11 11:54:59;;;;;;;1.23;0.90;;;8.10;96.80;;;;;;5010260;28;20455;-69
2023/11/11 11:57:25;;;;;;;2.00;1.00;;;8.20;96.80;;;;;;4983779;28;20128;-68
2023/11/11 12:00:09;;;;;;;0.95;0.57;;;8.10;96.60;;;;;;5003179;28;20030;-67
2023/11/11 12:02:35;;;;;;;1.10;0.93;;;8.10;96.20;;;;;;5007177;28;20049;-66
2023/11/11 12:05:07;;;;;;;0.95;0.70;;;8.00;96.40;;;;;;5007753;28;20033;-68
2023/11/11 12:07:37;;;;;;;1.02;0.88;;;8.00;96.50;;;;;;5007072;28;20037;-67
2023/11/11 12:10:06;;;;;;;1.40;0.90;;;8.00;96.20;;;;;;5005092;28;20064;-67
2023/11/11 12:12:32;;;;;;;1.15;0.80;;;8.10;96.20;;;;;;5005735;28;20533;-67
2023/11/11 12:14:58;;;;;;;1.88;0.80;;;8.10;96.00;;;;;;5001111;28;20041;-67
2023/11/11 12:17:25;;;;;;;4.43;1.48;;;8.10;96.10;;;;;;5005113;28;20044;-66
2023/11/11 12:19:53;;;;;;;1.23;0.80;;;8.20;96.40;;;;;;5006465;28;20050;-67
2023/11/11 12:22:19;;;;;;;0.70;0.60;;;8.10;96.20;;;;;;5006391;28;20146;-65
2023/11/11 12:24:45;;;;;;;2.85;1.40;;;8.00;95.60;;;;;;5009869;28;20141;-65
2023/11/11 12:27:11;;;;;;;2.75;0.95;;;8.00;95.90;;;;;;5006724;28;20129;-67
2023/11/11 12:29:40;;;;;;;1.65;0.63;;;8.00;95.90;;;;;;5004172;28;20044;-65
2023/11/11 12:32:13;;;;;;;0.63;0.60;;;8.00;95.20;;;;;;4998222;28;20058;-66
2023/11/11 12:34:39;;;;;;;0.70;0.57;;;7.90;95.20;;;;;;5003562;28;20061;-66
2023/11/11 12:37:04;;;;;;;1.25;0.80;;;8.00;95.20;;;;;;5006732;28;20034;-66
2023/11/11 12:39:30;;;;;;;1.42;0.77;;;8.00;95.20;;;;;;5000452;28;20458;-69
2023/11/11 12:41:56;;;;;;;1.45;0.70;;;8.10;95.30;;;;;;5004022;28;20044;-66
2023/11/11 12:44:23;;;;;;;2.03;0.80;;;8.10;94.80;;;;;;5004267;28;20163;-66
2023/11/11 12:46:49;;;;;;;1.38;0.80;;;8.30;94.60;;;;;;5004602;28;20030;-66
2023/11/11 12:49:18;;;;;;;1.08;0.77;;;8.40;94.30;;;;;;5005544;28;20046;-65
2023/11/11 12:51:45;;;;;;;0.52;0.52;;;8.50;93.70;;;;;;5006029;28;20092;-65
2023/11/11 12:54:12;;;;;;;1.13;0.70;;;8.50;92.00;;;;;;5008337;28;20393;-66